Skip Navigation Links
NOAA logo - Click to go to the NOAA homepage
NOAA's National Weather Service
Alaska Aviation Weather Unit
  NWS logo - Click to go to the NWS homepage
Left Navbar Graphic     01 AKDT = 09 GMT

   
NOAA is celebrating 200 years of science, service, and stewardship. Visit the NOAA 200th celebration Web site to learn more.
USA.gov is the U.S. Government's official Web portal to all Federal, state and local government Web resources and services.
Facebook
NWS on Facebook

Important Change Regarding the AAWU Web Presence

 

Over the last several months, the AAWU has been working to navigate its webpages to a nationally supported server. Security, as well as other needs, have necessitated the change.  We have been given an extension for the site changeover while we diligently work at addressing feedback received. As of July 14, 2017, aawu.arh.noaa.gov will be discontinued. The new AAWU web address is weather.gov/aawu. It is now live and will run in-parallel with the old site until it is discontinued on July 14, 2017. Please continue to send any feedback or questions regarding the new webpages to nws.ar.aawu.webauthors@noaa.gov.  Thank you for your patience during this time of transition.
AAWU Home :: Display TAF Add Bookmark
METAR PAFE 190356Z AUTO 13005KT 10SM 13/10 A3005 RMK AO2 SLP188
 T01330100 $=

METAR PAFE 190456Z AUTO 11004KT 10SM 13/10 A3006 RMK AO2 SLP193
     T01280100 $=

METAR PAFE 190556Z AUTO 10004KT 10SM 12/10 A3007 RMK AO2 SLP195
 T01220100 10150 20122 51010 $=

METAR PAFE 190656Z AUTO 10006KT 10SM 12/10 A3008 RMK AO2 SLP198
 T01170100 $=

METAR PAFE 190856Z AUTO 11005KT 10SM 11/10 A3009 RMK AO2 SLP201
     T01110100 401500106 50005 $=


NOAA's National Weather Service
Alaska Aviation Weather Unit
6930 Sand Lake Road
Anchorage, AK 99502-1845
Disclaimer
Credits
Glossary
Privacy Policy
About Us
Career Opportunities
Contact AAWU Internet Services Site last modified: April, 17th 2012